sensor_id;sensor_type;location;lat;lon;timestamp;pressure;altitude;pressure_sealevel;temperature;humidity
37972;BME280;23794;48.234;8.344;2023-07-31T00:01:35;94502.84;;;11.03;80.43
37972;BME280;23794;48.234;8.344;2023-07-31T00:04:01;94499.28;;;11.03;80.56
37972;BME280;23794;48.234;8.344;2023-07-31T00:06:28;94502.41;;;11.09;80.29
37972;BME280;23794;48.234;8.344;2023-07-31T00:08:55;94498.13;;;11.00;80.45
37972;BME280;23794;48.234;8.344;2023-07-31T00:11:22;94486.38;;;11.07;79.83
37972;BME280;23794;48.234;8.344;2023-07-31T00:13:48;94488.72;;;11.05;79.92
37972;BME280;23794;48.234;8.344;2023-07-31T00:16:16;94484.41;;;11.04;80.62
37972;BME280;23794;48.234;8.344;2023-07-31T00:18:43;94480.91;;;11.00;80.75
37972;BME280;23794;48.234;8.344;2023-07-31T00:21:10;94475.78;;;10.95;80.73
37972;BME280;23794;48.234;8.344;2023-07-31T00:23:37;94474.66;;;10.88;80.95
37972;BME280;23794;48.234;8.344;2023-07-31T00:26:04;94470.34;;;10.84;81.34
37972;BME280;23794;48.234;8.344;2023-07-31T00:28:30;94470.75;;;10.86;81.41
37972;BME280;23794;48.234;8.344;2023-07-31T00:30:57;94470.72;;;10.89;81.09
37972;BME280;23794;48.234;8.344;2023-07-31T00:33:25;94469.16;;;10.88;81.45
37972;BME280;23794;48.234;8.344;2023-07-31T00:35:51;94471.16;;;10.84;81.35
37972;BME280;23794;48.234;8.344;2023-07-31T00:38:18;94470.34;;;10.87;80.86
37972;BME280;23794;48.234;8.344;2023-07-31T00:40:45;94466.03;;;10.86;81.32
37972;BME280;23794;48.234;8.344;2023-07-31T00:43:12;94470.75;;;10.82;81.67
37972;BME280;23794;48.234;8.344;2023-07-31T00:45:40;94471.16;;;10.84;80.53
37972;BME280;23794;48.234;8.344;2023-07-31T00:48:07;94467.66;;;10.73;81.00
37972;BME280;23794;48.234;8.344;2023-07-31T00:50:35;94473.13;;;10.69;81.50
37972;BME280;23794;48.234;8.344;2023-07-31T00:53:02;94472.34;;;10.72;81.34
37972;BME280;23794;48.234;8.344;2023-07-31T00:55:29;94467.66;;;10.73;81.16
37972;BME280;23794;48.234;8.344;2023-07-31T00:57:56;94460.97;;;10.81;80.86
37972;BME280;23794;48.234;8.344;2023-07-31T01:00:22;94465.31;;;10.71;81.91
37972;BME280;23794;48.234;8.344;2023-07-31T01:02:50;94463.75;;;10.70;82.13
37972;BME280;23794;48.234;8.344;2023-07-31T01:05:31;94460.22;;;10.70;82.01
37972;BME280;23794;48.234;8.344;2023-07-31T01:08:10;94463.75;;;10.70;81.14
37972;BME280;23794;48.234;8.344;2023-07-31T01:10:47;94457.53;;;10.59;81.83
37972;BME280;23794;48.234;8.344;2023-07-31T01:13:17;94458.28;;;10.56;81.75
37972;BME280;23794;48.234;8.344;2023-07-31T01:15:44;94454.38;;;10.57;82.08
37972;BME280;23794;48.234;8.344;2023-07-31T01:18:10;94461.03;;;10.56;82.04
37972;BME280;23794;48.234;8.344;2023-07-31T01:20:41;94452.03;;;10.59;82.26
37972;BME280;23794;48.234;8.344;2023-07-31T01:23:35;94461.03;;;10.63;81.59
37972;BME280;23794;48.234;8.344;2023-07-31T01:26:12;94449.66;;;10.61;81.37
37972;BME280;23794;48.234;8.344;2023-07-31T01:29:00;94452.81;;;10.56;81.62
37972;BME280;23794;48.234;8.344;2023-07-31T01:31:30;94448.50;;;10.55;81.81
37972;BME280;23794;48.234;8.344;2023-07-31T01:34:01;94439.13;;;10.56;81.59
37972;BME280;23794;48.234;8.344;2023-07-31T01:36:30;94433.66;;;10.52;82.38
37972;BME280;23794;48.234;8.344;2023-07-31T01:39:00;94436.38;;;10.56;82.22
37972;BME280;23794;48.234;8.344;2023-07-31T01:41:27;94436.78;;;10.62;81.08
37972;BME280;23794;48.234;8.344;2023-07-31T01:43:54;94441.09;;;10.48;81.23
37972;BME280;23794;48.234;8.344;2023-07-31T01:46:22;94429.75;;;10.46;81.66
37972;BME280;23794;48.234;8.344;2023-07-31T01:48:50;94428.59;;;10.51;81.07
37972;BME280;23794;48.234;8.344;2023-07-31T01:51:17;94430.91;;;10.56;81.36
37972;BME280;23794;48.234;8.344;2023-07-31T01:53:44;94425.03;;;10.54;82.12
37972;BME280;23794;48.234;8.344;2023-07-31T01:56:11;94428.56;;;10.58;82.09
37972;BME280;23794;48.234;8.344;2023-07-31T01:58:38;94423.84;;;10.66;80.85
37972;BME280;23794;48.234;8.344;2023-07-31T02:01:04;94417.19;;;10.67;80.74
37972;BME280;23794;48.234;8.344;2023-07-31T02:03:33;94414.47;;;10.60;81.27
37972;BME280;23794;48.234;8.344;2023-07-31T02:06:00;94403.50;;;10.63;81.47
37972;BME280;23794;48.234;8.344;2023-07-31T02:08:27;94404.66;;;10.62;81.56
37972;BME280;23794;48.234;8.344;2023-07-31T02:10:53;94405.81;;;10.65;81.06
37972;BME280;23794;48.234;8.344;2023-07-31T02:13:20;94400.00;;;10.63;80.96
37972;BME280;23794;48.234;8.344;2023-07-31T02:15:47;94396.06;;;10.56;81.68
37972;BME280;23794;48.234;8.344;2023-07-31T02:18:14;94395.69;;;10.58;82.30
37972;BME280;23794;48.234;8.344;2023-07-31T02:20:40;94376.13;;;10.60;81.45
37972;BME280;23794;48.234;8.344;2023-07-31T02:23:07;94389.03;;;10.52;81.51
37972;BME280;23794;48.234;8.344;2023-07-31T02:25:34;94385.13;;;10.53;80.92
37972;BME280;23794;48.234;8.344;2023-07-31T02:28:00;94390.59;;;10.53;81.02
37972;BME280;23794;48.234;8.344;2023-07-31T02:30:27;94384.75;;;10.51;81.64
37972;BME280;23794;48.234;8.344;2023-07-31T02:32:54;94385.94;;;10.46;81.85
37972;BME280;23794;48.234;8.344;2023-07-31T02:35:20;94381.66;;;10.45;81.92
37972;BME280;23794;48.234;8.344;2023-07-31T02:37:47;94380.84;;;10.48;81.88
37972;BME280;23794;48.234;8.344;2023-07-31T02:40:13;94381.22;;;10.50;81.17
37972;BME280;23794;48.234;8.344;2023-07-31T02:42:40;94381.63;;;10.49;81.13
37972;BME280;23794;48.234;8.344;2023-07-31T02:45:07;94380.06;;;10.48;80.95
37972;BME280;23794;48.234;8.344;2023-07-31T02:47:34;94384.75;;;10.51;81.91
37972;BME280;23794;48.234;8.344;2023-07-31T02:50:04;94378.91;;;10.49;81.68
37972;BME280;23794;48.234;8.344;2023-07-31T02:52:31;94375.78;;;10.43;81.47
37972;BME280;23794;48.234;8.344;2023-07-31T02:54:58;94375.75;;;10.50;81.36
37972;BME280;23794;48.234;8.344;2023-07-31T02:57:25;94373.84;;;10.44;82.34
37972;BME280;23794;48.234;8.344;2023-07-31T02:59:51;94370.28;;;10.47;82.02
37972;BME280;23794;48.234;8.344;2023-07-31T03:02:18;94371.44;;;10.49;82.10
37972;BME280;23794;48.234;8.344;2023-07-31T03:04:45;94363.63;;;10.51;82.53
37972;BME280;23794;48.234;8.344;2023-07-31T03:07:13;94374.16;;;10.60;82.13
37972;BME280;23794;48.234;8.344;2023-07-31T03:09:40;94367.50;;;10.61;82.35
37972;BME280;23794;48.234;8.344;2023-07-31T03:12:07;94367.88;;;10.67;81.98
37972;BME280;23794;48.234;8.344;2023-07-31T03:14:35;94369.03;;;10.69;82.16
37972;BME280;23794;48.234;8.344;2023-07-31T03:17:02;94374.09;;;10.82;82.21
37972;BME280;23794;48.234;8.344;2023-07-31T03:19:31;94369.72;;;10.92;82.67
37972;BME280;23794;48.234;8.344;2023-07-31T03:21:59;94367.34;;;10.97;82.77
37972;BME280;23794;48.234;8.344;2023-07-31T03:24:28;94372.41;;;11.10;82.80
37972;BME280;23794;48.234;8.344;2023-07-31T03:26:55;94375.88;;;11.14;82.70
37972;BME280;23794;48.234;8.344;2023-07-31T03:29:22;94375.84;;;11.21;82.62
37972;BME280;23794;48.234;8.344;2023-07-31T03:31:51;94376.63;;;11.25;82.40
37972;BME280;23794;48.234;8.344;2023-07-31T03:34:18;94379.34;;;11.29;82.44
37972;BME280;23794;48.234;8.344;2023-07-31T03:36:45;94373.00;;;11.35;82.06
37972;BME280;23794;48.234;8.344;2023-07-31T03:39:11;94386.41;;;11.30;82.13
37972;BME280;23794;48.234;8.344;2023-07-31T03:41:38;94381.31;;;11.25;82.04
37972;BME280;23794;48.234;8.344;2023-07-31T03:44:04;94377.81;;;11.24;82.10
37972;BME280;23794;48.234;8.344;2023-07-31T03:46:31;94379.00;;;11.19;81.83
37972;BME280;23794;48.234;8.344;2023-07-31T03:48:58;94379.78;;;11.16;81.91
37972;BME280;23794;48.234;8.344;2023-07-31T03:51:25;94371.53;;;11.20;81.45
37972;BME280;23794;48.234;8.344;2023-07-31T03:53:52;94374.31;;;11.13;82.39
37972;BME280;23794;48.234;8.344;2023-07-31T03:56:19;94372.00;;;11.11;81.58
37972;BME280;23794;48.234;8.344;2023-07-31T03:58:45;94366.16;;;11.05;82.17
37972;BME280;23794;48.234;8.344;2023-07-31T04:01:12;94362.19;;;11.14;81.71
37972;BME280;23794;48.234;8.344;2023-07-31T04:03:38;94360.97;;;11.18;80.74
37972;BME280;23794;48.234;8.344;2023-07-31T04:06:05;94351.22;;;11.14;81.45
37972;BME280;23794;48.234;8.344;2023-07-31T04:08:33;94355.53;;;11.11;81.72
37972;BME280;23794;48.234;8.344;2023-07-31T04:11:00;94354.34;;;11.16;81.21
37972;BME280;23794;48.234;8.344;2023-07-31T04:13:26;94353.97;;;11.14;82.66
37972;BME280;23794;48.234;8.344;2023-07-31T04:15:54;94352.31;;;11.24;81.50
37972;BME280;23794;48.234;8.344;2023-07-31T04:18:22;94356.28;;;11.23;82.33
37972;BME280;23794;48.234;8.344;2023-07-31T04:20:48;94349.59;;;11.27;82.17
37972;BME280;23794;48.234;8.344;2023-07-31T04:23:15;94350.31;;;11.35;81.15
37972;BME280;23794;48.234;8.344;2023-07-31T04:25:41;94349.09;;;11.40;80.66
37972;BME280;23794;48.234;8.344;2023-07-31T04:28:08;94353.06;;;11.31;81.88
37972;BME280;23794;48.234;8.344;2023-07-31T04:30:35;94356.53;;;11.39;81.82
37972;BME280;23794;48.234;8.344;2023-07-31T04:33:03;94354.91;;;11.49;81.76
37972;BME280;23794;48.234;8.344;2023-07-31T04:35:29;94348.63;;;11.52;81.21
37972;BME280;23794;48.234;8.344;2023-07-31T04:37:56;94352.53;;;11.51;80.64
37972;BME280;23794;48.234;8.344;2023-07-31T04:40:23;94349.00;;;11.54;80.37
37972;BME280;23794;48.234;8.344;2023-07-31T04:42:49;94358.47;;;11.46;81.27
37972;BME280;23794;48.234;8.344;2023-07-31T04:45:16;94351.41;;;11.45;81.96
37972;BME280;23794;48.234;8.344;2023-07-31T04:47:43;94355.31;;;11.47;82.17
37972;BME280;23794;48.234;8.344;2023-07-31T04:50:10;94349.72;;;11.58;81.84
37972;BME280;23794;48.234;8.344;2023-07-31T04:52:37;94343.47;;;11.58;81.67
37972;BME280;23794;48.234;8.344;2023-07-31T04:55:03;94341.03;;;11.71;80.73
37972;BME280;23794;48.234;8.344;2023-07-31T04:57:30;94347.66;;;11.73;81.22
37972;BME280;23794;48.234;8.344;2023-07-31T04:59:57;94347.66;;;11.73;80.68
37972;BME280;23794;48.234;8.344;2023-07-31T05:02:23;94348.78;;;11.79;80.11
37972;BME280;23794;48.234;8.344;2023-07-31T05:04:51;94342.09;;;11.84;79.67
37972;BME280;23794;48.234;8.344;2023-07-31T05:07:17;94338.94;;;11.86;79.43
37972;BME280;23794;48.234;8.344;2023-07-31T05:09:44;94338.94;;;11.86;79.09
37972;BME280;23794;48.234;8.344;2023-07-31T05:12:11;94353.88;;;11.81;78.85
37972;BME280;23794;48.234;8.344;2023-07-31T05:14:37;94344.13;;;11.73;79.76
37972;BME280;23794;48.234;8.344;2023-07-31T05:17:04;94342.09;;;11.84;79.65
37972;BME280;23794;48.234;8.344;2023-07-31T05:19:30;94349.84;;;11.93;79.79
37972;BME280;23794;48.234;8.344;2023-07-31T05:21:57;94344.72;;;11.95;79.82
37972;BME280;23794;48.234;8.344;2023-07-31T05:24:24;94350.19;;;11.98;79.05
37972;BME280;23794;48.234;8.344;2023-07-31T05:26:50;94349.38;;;12.02;79.87
37972;BME280;23794;48.234;8.344;2023-07-31T05:29:17;94344.25;;;12.04;80.25
37972;BME280;23794;48.234;8.344;2023-07-31T05:31:44;94353.47;;;12.24;79.41
37972;BME280;23794;48.234;8.344;2023-07-31T05:34:11;94365.13;;;12.36;79.62
37972;BME280;23794;48.234;8.344;2023-07-31T05:36:37;94359.19;;;12.41;78.89
37972;BME280;23794;48.234;8.344;2023-07-31T05:39:04;94357.84;;;12.56;78.94
37972;BME280;23794;48.234;8.344;2023-07-31T05:41:35;94360.56;;;12.60;78.87
37972;BME280;23794;48.234;8.344;2023-07-31T05:44:02;94355.78;;;12.68;78.13
37972;BME280;23794;48.234;8.344;2023-07-31T05:46:28;94365.13;;;12.74;78.12
37972;BME280;23794;48.234;8.344;2023-07-31T05:48:55;94355.59;;;12.82;77.95
37972;BME280;23794;48.234;8.344;2023-07-31T05:51:22;94354.13;;;12.74;78.83
37972;BME280;23794;48.234;8.344;2023-07-31T05:53:48;94351.28;;;12.81;78.53
37972;BME280;23794;48.234;8.344;2023-07-31T05:56:15;94345.28;;;12.90;77.77
37972;BME280;23794;48.234;8.344;2023-07-31T05:58:42;94339.78;;;12.90;78.68
37972;BME280;23794;48.234;8.344;2023-07-31T06:01:08;94336.97;;;12.97;78.63
37972;BME280;23794;48.234;8.344;2023-07-31T06:03:35;94322.31;;;13.04;78.39
37972;BME280;23794;48.234;8.344;2023-07-31T06:06:02;94332.09;;;13.08;77.42
37972;BME280;23794;48.234;8.344;2023-07-31T06:08:28;94338.25;;;13.16;78.06
37972;BME280;23794;48.234;8.344;2023-07-31T06:10:55;94329.13;;;13.23;77.46
37972;BME280;23794;48.234;8.344;2023-07-31T06:13:22;94340.09;;;13.26;77.53
37972;BME280;23794;48.234;8.344;2023-07-31T06:15:48;94335.16;;;13.41;77.75
37972;BME280;23794;48.234;8.344;2023-07-31T06:18:15;94336.19;;;13.51;76.17
37972;BME280;23794;48.234;8.344;2023-07-31T06:20:42;94336.44;;;13.61;75.97
37972;BME280;23794;48.234;8.344;2023-07-31T06:23:08;94343.69;;;13.74;76.14
37972;BME280;23794;48.234;8.344;2023-07-31T06:25:35;94328.88;;;13.68;76.33
37972;BME280;23794;48.234;8.344;2023-07-31T06:28:02;94322.47;;;13.75;76.64
37972;BME280;23794;48.234;8.344;2023-07-31T06:30:28;94324.19;;;13.89;76.85
37972;BME280;23794;48.234;8.344;2023-07-31T06:32:55;94320.66;;;14.12;76.66
37972;BME280;23794;48.234;8.344;2023-07-31T06:35:22;94317.50;;;14.34;76.48
37972;BME280;23794;48.234;8.344;2023-07-31T06:37:48;94309.25;;;14.54;75.29
37972;BME280;23794;48.234;8.344;2023-07-31T06:40:15;94316.28;;;14.75;74.18
37972;BME280;23794;48.234;8.344;2023-07-31T06:42:42;94303.72;;;14.74;72.35
37972;BME280;23794;48.234;8.344;2023-07-31T06:45:09;94306.22;;;14.89;73.05
37972;BME280;23794;48.234;8.344;2023-07-31T06:47:36;94302.66;;;14.88;72.72
37972;BME280;23794;48.234;8.344;2023-07-31T06:50:03;94310.78;;;14.95;73.38
37972;BME280;23794;48.234;8.344;2023-07-31T06:52:30;94306.13;;;14.92;72.85
37972;BME280;23794;48.234;8.344;2023-07-31T06:55:02;94322.53;;;14.99;73.68
37972;BME280;23794;48.234;8.344;2023-07-31T06:57:30;94321.25;;;15.04;68.60
37972;BME280;23794;48.234;8.344;2023-07-31T06:59:56;94326.25;;;15.09;70.41
37972;BME280;23794;48.234;8.344;2023-07-31T07:02:23;94321.25;;;15.21;69.83
37972;BME280;23794;48.234;8.344;2023-07-31T07:04:50;94311.97;;;15.31;70.63
37972;BME280;23794;48.234;8.344;2023-07-31T07:07:17;94319.66;;;15.40;68.94
37972;BME280;23794;48.234;8.344;2023-07-31T07:09:43;94323.91;;;15.61;67.06
37972;BME280;23794;48.234;8.344;2023-07-31T07:12:10;94327.09;;;15.76;66.84
37972;BME280;23794;48.234;8.344;2023-07-31T07:14:36;94325.63;;;15.88;66.33
37972;BME280;23794;48.234;8.344;2023-07-31T07:17:03;94324.25;;;15.96;65.33
37972;BME280;23794;48.234;8.344;2023-07-31T07:19:30;94316.56;;;16.04;64.17
37972;BME280;23794;48.234;8.344;2023-07-31T07:21:57;94313.34;;;16.22;65.12
37972;BME280;23794;48.234;8.344;2023-07-31T07:24:25;94311.34;;;16.22;63.60
37972;BME280;23794;48.234;8.344;2023-07-31T07:26:53;94315.78;;;16.03;62.73
37972;BME280;23794;48.234;8.344;2023-07-31T07:29:20;94310.69;;;16.02;61.80
37972;BME280;23794;48.234;8.344;2023-07-31T07:31:47;94317.34;;;16.04;65.33
37972;BME280;23794;48.234;8.344;2023-07-31T07:34:13;94315.28;;;16.08;64.73
37972;BME280;23794;48.234;8.344;2023-07-31T07:36:40;94322.88;;;16.04;63.32
37972;BME280;23794;48.234;8.344;2023-07-31T07:39:09;94324.50;;;16.18;64.30
37972;BME280;23794;48.234;8.344;2023-07-31T07:41:36;94324.84;;;16.20;63.82
37972;BME280;23794;48.234;8.344;2023-07-31T07:44:03;94310.66;;;16.35;63.20
37972;BME280;23794;48.234;8.344;2023-07-31T07:46:30;94316.59;;;16.63;61.02
37972;BME280;23794;48.234;8.344;2023-07-31T07:48:57;94312.50;;;17.10;59.65
37972;BME280;23794;48.234;8.344;2023-07-31T07:51:23;94298.13;;;17.41;57.23
37972;BME280;23794;48.234;8.344;2023-07-31T07:53:50;94300.81;;;17.31;56.31
37972;BME280;23794;48.234;8.344;2023-07-31T07:56:17;94295.59;;;17.20;56.86
37972;BME280;23794;48.234;8.344;2023-07-31T07:58:43;94297.94;;;17.22;56.31
37972;BME280;23794;48.234;8.344;2023-07-31T08:01:10;94297.38;;;17.27;56.52
37972;BME280;23794;48.234;8.344;2023-07-31T08:03:37;94293.16;;;17.35;55.28
37972;BME280;23794;48.234;8.344;2023-07-31T08:06:04;94290.41;;;17.48;55.19
37972;BME280;23794;48.234;8.344;2023-07-31T08:08:30;94288.38;;;17.62;54.43
37972;BME280;23794;48.234;8.344;2023-07-31T08:10:57;94297.75;;;17.90;54.71
37972;BME280;23794;48.234;8.344;2023-07-31T08:13:24;94279.84;;;18.17;53.58
37972;BME280;23794;48.234;8.344;2023-07-31T08:15:51;94283.81;;;18.29;54.49
37972;BME280;23794;48.234;8.344;2023-07-31T08:18:17;94285.34;;;18.30;53.33
37972;BME280;23794;48.234;8.344;2023-07-31T08:20:44;94290.06;;;18.20;53.84
37972;BME280;23794;48.234;8.344;2023-07-31T08:23:11;94286.34;;;18.01;52.91
37972;BME280;23794;48.234;8.344;2023-07-31T08:25:38;94279.03;;;17.81;52.47
37972;BME280;23794;48.234;8.344;2023-07-31T08:28:05;94285.78;;;17.93;55.21
37972;BME280;23794;48.234;8.344;2023-07-31T08:30:33;94275.50;;;18.29;53.45
37972;BME280;23794;48.234;8.344;2023-07-31T08:33:00;94283.28;;;18.21;53.12
37972;BME280;23794;48.234;8.344;2023-07-31T08:35:27;94276.53;;;18.44;53.17
37972;BME280;23794;48.234;8.344;2023-07-31T08:37:56;94271.56;;;18.39;51.90
37972;BME280;23794;48.234;8.344;2023-07-31T08:40:23;94278.50;;;18.22;52.42
37972;BME280;23794;48.234;8.344;2023-07-31T08:42:54;94281.16;;;18.25;52.90
37972;BME280;23794;48.234;8.344;2023-07-31T08:45:23;94271.13;;;18.41;52.67
37972;BME280;23794;48.234;8.344;2023-07-31T08:47:51;94269.75;;;18.45;52.66
37972;BME280;23794;48.234;8.344;2023-07-31T08:50:20;94265.19;;;18.52;51.60
37972;BME280;23794;48.234;8.344;2023-07-31T08:52:49;94268.22;;;18.67;51.93
37972;BME280;23794;48.234;8.344;2023-07-31T08:55:16;94274.34;;;18.61;52.70
37972;BME280;23794;48.234;8.344;2023-07-31T08:57:43;94287.81;;;18.72;52.67
37972;BME280;23794;48.234;8.344;2023-07-31T09:00:11;94275.31;;;18.45;53.04
37972;BME280;23794;48.234;8.344;2023-07-31T09:02:45;94270.00;;;18.60;51.86
37972;BME280;23794;48.234;8.344;2023-07-31T09:05:12;94258.16;;;18.82;52.12
37972;BME280;23794;48.234;8.344;2023-07-31T09:07:40;94259.56;;;18.87;52.36
37972;BME280;23794;48.234;8.344;2023-07-31T09:10:08;94248.56;;;18.83;51.03
37972;BME280;23794;48.234;8.344;2023-07-31T09:12:35;94236.72;;;18.60;50.64
37972;BME280;23794;48.234;8.344;2023-07-31T09:15:04;94253.47;;;18.47;52.00
37972;BME280;23794;48.234;8.344;2023-07-31T09:17:35;94243.25;;;18.67;50.97
37972;BME280;23794;48.234;8.344;2023-07-31T09:20:20;94243.03;;;18.83;50.65
37972;BME280;23794;48.234;8.344;2023-07-31T09:22:48;94241.38;;;18.86;50.66
37972;BME280;23794;48.234;8.344;2023-07-31T09:25:22;94248.09;;;18.98;49.21
37972;BME280;23794;48.234;8.344;2023-07-31T09:28:01;94237.81;;;19.17;50.94
37972;BME280;23794;48.234;8.344;2023-07-31T09:30:28;94241.78;;;19.47;50.41
37972;BME280;23794;48.234;8.344;2023-07-31T09:33:03;94238.50;;;19.99;49.56
37972;BME280;23794;48.234;8.344;2023-07-31T09:35:33;94231.88;;;20.33;47.21
37972;BME280;23794;48.234;8.344;2023-07-31T09:38:03;94222.78;;;20.24;47.52
37972;BME280;23794;48.234;8.344;2023-07-31T09:40:33;94231.56;;;20.03;47.54
37972;BME280;23794;48.234;8.344;2023-07-31T09:43:00;94218.41;;;19.76;47.58
37972;BME280;23794;48.234;8.344;2023-07-31T09:45:27;94220.03;;;19.46;48.98
37972;BME280;23794;48.234;8.344;2023-07-31T09:48:14;94220.81;;;19.55;48.99
37972;BME280;23794;48.234;8.344;2023-07-31T09:50:49;94218.19;;;19.52;49.58
37972;BME280;23794;48.234;8.344;2023-07-31T09:53:16;94213.34;;;19.84;49.91
37972;BME280;23794;48.234;8.344;2023-07-31T09:55:43;94198.81;;;20.08;49.80
37972;BME280;23794;48.234;8.344;2023-07-31T09:58:12;94211.34;;;19.94;49.02
37972;BME280;23794;48.234;8.344;2023-07-31T10:00:39;94198.13;;;19.57;48.91
37972;BME280;23794;48.234;8.344;2023-07-31T10:03:07;94188.63;;;19.86;48.91
37972;BME280;23794;48.234;8.344;2023-07-31T10:05:40;94188.16;;;20.25;48.21
37972;BME280;23794;48.234;8.344;2023-07-31T10:08:10;94190.44;;;20.63;48.05
37972;BME280;23794;48.234;8.344;2023-07-31T10:10:42;94186.44;;;20.64;46.93
37972;BME280;23794;48.234;8.344;2023-07-31T10:13:10;94189.28;;;20.89;46.03
37972;BME280;23794;48.234;8.344;2023-07-31T10:15:38;94171.13;;;21.12;45.94
37972;BME280;23794;48.234;8.344;2023-07-31T10:18:07;94169.00;;;20.97;44.79
37972;BME280;23794;48.234;8.344;2023-07-31T10:20:35;94164.66;;;21.39;46.73
37972;BME280;23794;48.234;8.344;2023-07-31T10:23:03;94159.47;;;21.95;46.27
37972;BME280;23794;48.234;8.344;2023-07-31T10:25:30;94149.03;;;22.20;44.98
37972;BME280;23794;48.234;8.344;2023-07-31T10:27:58;94152.53;;;22.45;43.65
37972;BME280;23794;48.234;8.344;2023-07-31T10:30:29;94149.13;;;22.11;41.68
37972;BME280;23794;48.234;8.344;2023-07-31T10:32:56;94146.97;;;22.06;44.43
37972;BME280;23794;48.234;8.344;2023-07-31T10:35:24;94138.53;;;22.15;44.34
37972;BME280;23794;48.234;8.344;2023-07-31T10:37:51;94141.28;;;22.24;43.61
37972;BME280;23794;48.234;8.344;2023-07-31T10:40:23;94141.56;;;22.41;44.88
37972;BME280;23794;48.234;8.344;2023-07-31T10:42:52;94139.66;;;22.63;42.51
37972;BME280;23794;48.234;8.344;2023-07-31T10:45:35;94134.81;;;22.63;43.15
37972;BME280;23794;48.234;8.344;2023-07-31T10:48:05;94134.91;;;22.84;43.88
37972;BME280;23794;48.234;8.344;2023-07-31T10:50:37;94128.47;;;22.78;41.77
37972;BME280;23794;48.234;8.344;2023-07-31T10:53:04;94134.13;;;22.83;43.24
37972;BME280;23794;48.234;8.344;2023-07-31T10:55:41;94127.81;;;22.68;41.81
37972;BME280;23794;48.234;8.344;2023-07-31T10:58:12;94127.78;;;22.83;41.84
37972;BME280;23794;48.234;8.344;2023-07-31T11:00:40;94134.22;;;23.04;41.75
37972;BME280;23794;48.234;8.344;2023-07-31T11:03:09;94130.69;;;23.24;43.42
37972;BME280;23794;48.234;8.344;2023-07-31T11:05:54;94145.31;;;23.34;43.11
37972;BME280;23794;48.234;8.344;2023-07-31T11:08:27;94137.94;;;23.16;40.41
37972;BME280;23794;48.234;8.344;2023-07-31T11:13:31;94141.06;;;23.59;41.81
37972;BME280;23794;48.234;8.344;2023-07-31T11:15:59;94132.34;;;23.93;41.44
37972;BME280;23794;48.234;8.344;2023-07-31T11:18:26;94136.72;;;23.73;42.58
37972;BME280;23794;48.234;8.344;2023-07-31T11:20:54;94142.63;;;23.60;40.82
37972;BME280;23794;48.234;8.344;2023-07-31T11:23:22;94141.59;;;23.78;40.99
37972;BME280;23794;48.234;8.344;2023-07-31T11:25:49;94134.59;;;23.89;41.01
37972;BME280;23794;48.234;8.344;2023-07-31T11:28:17;94134.09;;;23.90;40.75
37972;BME280;23794;48.234;8.344;2023-07-31T11:30:45;94138.59;;;24.03;41.46
37972;BME280;23794;48.234;8.344;2023-07-31T11:33:13;94131.84;;;24.15;40.85
37972;BME280;23794;48.234;8.344;2023-07-31T11:35:45;94135.63;;;24.12;39.67
37972;BME280;23794;48.234;8.344;2023-07-31T11:38:12;94139.19;;;23.50;40.81
37972;BME280;23794;48.234;8.344;2023-07-31T11:40:47;94137.03;;;22.89;40.73
37972;BME280;23794;48.234;8.344;2023-07-31T11:43:14;94128.00;;;22.94;42.23
37972;BME280;23794;48.234;8.344;2023-07-31T11:45:51;94134.50;;;23.06;42.02
37972;BME280;23794;48.234;8.344;2023-07-31T11:48:23;94129.63;;;23.01;43.14
37972;BME280;23794;48.234;8.344;2023-07-31T11:50:51;94123.47;;;22.82;42.85
37972;BME280;23794;48.234;8.344;2023-07-31T11:53:29;94110.13;;;22.41;42.76
37972;BME280;23794;48.234;8.344;2023-07-31T11:55:59;94114.88;;;22.85;45.32
37972;BME280;23794;48.234;8.344;2023-07-31T11:58:26;94116.44;;;22.86;43.56
37972;BME280;23794;48.234;8.344;2023-07-31T12:00:54;94109.78;;;23.34;43.20
37972;BME280;23794;48.234;8.344;2023-07-31T12:03:21;94108.22;;;23.54;41.97
37972;BME280;23794;48.234;8.344;2023-07-31T12:05:48;94097.97;;;23.87;42.63
37972;BME280;23794;48.234;8.344;2023-07-31T12:08:15;94091.00;;;23.76;41.24
37972;BME280;23794;48.234;8.344;2023-07-31T12:10:42;94100.94;;;23.77;41.74
37972;BME280;23794;48.234;8.344;2023-07-31T12:13:19;94094.41;;;23.65;41.54
37972;BME280;23794;48.234;8.344;2023-07-31T12:15:48;94091.13;;;24.14;40.67
37972;BME280;23794;48.234;8.344;2023-07-31T12:18:19;94083.88;;;23.55;40.45
37972;BME280;23794;48.234;8.344;2023-07-31T12:20:48;94089.19;;;22.96;41.41
37972;BME280;23794;48.234;8.344;2023-07-31T12:23:20;94096.81;;;22.66;43.23
37972;BME280;23794;48.234;8.344;2023-07-31T12:26:05;94099.72;;;22.41;43.15
37972;BME280;23794;48.234;8.344;2023-07-31T12:28:49;94091.88;;;22.16;44.38
37972;BME280;23794;48.234;8.344;2023-07-31T12:31:18;94080.06;;;22.06;46.38
37972;BME280;23794;48.234;8.344;2023-07-31T12:33:47;94079.81;;;22.19;47.04
37972;BME280;23794;48.234;8.344;2023-07-31T12:36:18;94078.09;;;22.36;48.75
37972;BME280;23794;48.234;8.344;2023-07-31T12:38:46;94076.44;;;22.45;48.29
37972;BME280;23794;48.234;8.344;2023-07-31T12:41:13;94077.06;;;22.69;47.94
37972;BME280;23794;48.234;8.344;2023-07-31T12:43:41;94073.00;;;22.85;48.98
37972;BME280;23794;48.234;8.344;2023-07-31T12:46:09;94058.59;;;23.08;44.80
37972;BME280;23794;48.234;8.344;2023-07-31T12:48:37;94057.38;;;23.50;45.65
37972;BME280;23794;48.234;8.344;2023-07-31T12:51:05;94048.34;;;23.61;45.18
37972;BME280;23794;48.234;8.344;2023-07-31T12:53:33;94050.75;;;23.68;44.75
37972;BME280;23794;48.234;8.344;2023-07-31T12:56:00;94039.22;;;24.07;44.66
37972;BME280;23794;48.234;8.344;2023-07-31T12:58:27;94037.00;;;24.43;42.09
37972;BME280;23794;48.234;8.344;2023-07-31T13:00:54;94036.00;;;24.46;39.01
37972;BME280;23794;48.234;8.344;2023-07-31T13:03:20;94038.91;;;24.31;43.78
37972;BME280;23794;48.234;8.344;2023-07-31T13:05:47;94036.38;;;24.60;40.65
37972;BME280;23794;48.234;8.344;2023-07-31T13:08:14;94024.34;;;24.91;39.84